Terminal Aerodrome Forecast
Issued by NWS

Home | Current Version | Previous Version | Graphics & Text | Print | Product List | Glossary On
Versions: 1 2 3 4 5 6 7 8 9 10 11 12 13 14 15 16 17 18 19 20 21 22 23 24 25 26 27 28 29 30
976
FTUS45 KGGW 170520
TAFOLF
TAF
KOLF 170520Z 1706/1806 24006KT P6SM SKC WS020/27035KT
     FM171300 24008KT P6SM SKC
     FM171700 25012KT P6SM SKC
     FM180300 22011KT P6SM SCT180 WS020/24040KT=

USA.gov is the U.S. government's official web portal to all federal, state and local government web resources and services.